»·PEaware :: N733TR KTEX-KABQ

N733TR :: KTEX-KABQ

FLIGHT INFORMATION

Flight Status: Arrived
Operator: Privately registered:
United States
More flights under this callsign
Pilot: Jonathan B. (787)
Aircraft: CIRRUS VISIONJET
(SF50)
More flights by this aircraft type
Origin: KTEX Telluride Regl
United States
Destination: KABQ Albuquerque Intl Sunport
United States
More flights between these airports :: More routes between these airports
Route: ETL HAVWU V187 RSK TANER CURLY3
File this flight plan on PilotEdge
Remarks:
Altitude:
(Current/Filed)
21,000ft
Speed:
(Current/Filed)
280kts
Departed: 29-Oct-23 05:08 PM
Arrived: 29-Oct-23 06:09 PM
Distance/Time
Traveled:
186nm/1:01
Distance/Time
To Go:
Arrived

Flight Plot

Page will automatically refresh every two minutes.

Flight plan parsing failed; only flown route is shown


Map Options




Map Legend


Flown Route
Filed Route
Departure Airport
Arrival Airport
Navaid (VOR, NDB)
Fix

Horizontal Profiles

Position Reports

Time Latitude Longitude Heading Altitude Ground
Speed
29-Oct-23 16:57 37.953999 -107.900984 196 9067ft 0kts
29-Oct-23 16:58 37.953999 -107.900984 196 9067ft 0kts
29-Oct-23 16:59 37.953999 -107.900984 196 9067ft 0kts
29-Oct-23 17:00 37.953999 -107.900984 196 9067ft 0kts
29-Oct-23 17:01 37.953999 -107.900984 196 9067ft 0kts
29-Oct-23 17:02 37.953999 -107.900984 196 9067ft 0kts
29-Oct-23 17:03 37.953985 -107.900990 199 9067ft 0kts
29-Oct-23 17:04 37.952629 -107.897666 105 9081ft 18kts
29-Oct-23 17:05 37.952425 -107.896805 126 9087ft 0kts
29-Oct-23 17:06 37.951557 -107.897965 283 9068ft 28kts
29-Oct-23 17:07 37.960710 -107.934133 289 9700ft 147kts
29-Oct-23 17:08 37.972500 -107.984091 290 11330ft 153kts
29-Oct-23 17:09 37.985372 -108.035919 291 12714ft 154kts
29-Oct-23 17:10 37.997971 -108.086879 291 14003ft 152kts
29-Oct-23 17:11 38.010563 -108.137841 292 15191ft 152kts
29-Oct-23 17:12 38.022549 -108.186499 292 16393ft 142kts
29-Oct-23 17:13 38.034231 -108.233943 291 17425ft 141kts
29-Oct-23 17:14 38.031759 -108.282653 255 18360ft 150kts
29-Oct-23 17:15 38.015333 -108.331586 255 19275ft 151kts
29-Oct-23 17:16 37.998772 -108.380116 255 20112ft 150kts
29-Oct-23 17:17 37.982224 -108.428579 255 20906ft 152kts
29-Oct-23 17:19 37.943413 -108.452161 172 21053ft 230kts
29-Oct-23 17:20 37.875824 -108.431635 172 21018ft 264kts
29-Oct-23 17:21 37.801902 -108.409518 171 21020ft 279kts
29-Oct-23 17:22 37.725190 -108.386600 171 21003ft 285kts
29-Oct-23 17:23 37.647888 -108.363554 172 21036ft 285kts
29-Oct-23 17:24 37.570118 -108.340419 172 21052ft 287kts
29-Oct-23 17:25 37.492212 -108.317270 172 21073ft 287kts
29-Oct-23 17:26 37.414441 -108.294276 172 21098ft 287kts
29-Oct-23 17:27 37.336462 -108.271233 172 21099ft 287kts
29-Oct-23 17:28 37.258332 -108.248145 172 21106ft 287kts
29-Oct-23 17:29 37.180460 -108.225256 172 21113ft 287kts
29-Oct-23 17:30 37.102576 -108.202395 172 21114ft 287kts
29-Oct-23 17:31 37.024547 -108.179523 173 21118ft 287kts
29-Oct-23 17:32 36.946762 -108.156748 173 21117ft 287kts
29-Oct-23 17:33 36.868896 -108.134010 173 21101ft 286kts
29-Oct-23 17:34 36.791658 -108.111517 172 21124ft 285kts
29-Oct-23 17:35 36.717559 -108.075052 153 21120ft 294kts
29-Oct-23 17:36 36.648108 -108.021619 153 21127ft 293kts
29-Oct-23 17:37 36.578603 -107.968241 153 21127ft 293kts
29-Oct-23 17:38 36.510211 -107.915703 154 21431ft 284kts
29-Oct-23 17:39 36.442230 -107.863712 153 21443ft 290kts
29-Oct-23 17:40 36.373528 -107.811201 154 21466ft 290kts
29-Oct-23 17:41 36.304411 -107.758504 154 21468ft 291kts
29-Oct-23 17:42 36.235191 -107.705846 154 21462ft 292kts
29-Oct-23 17:42 36.177595 -107.662114 154 21467ft 292kts
29-Oct-23 17:43 36.107181 -107.608801 153 20739ft 301kts
29-Oct-23 17:45 36.023775 -107.545748 153 19235ft 301kts
29-Oct-23 17:46 35.953833 -107.492927 153 18355ft 286kts
29-Oct-23 17:47 35.886558 -107.442275 153 17435ft 282kts
29-Oct-23 17:47 35.830891 -107.400485 153 17211ft 280kts
29-Oct-23 17:48 35.764210 -107.350463 154 16863ft 281kts
29-Oct-23 17:49 35.697322 -107.300399 154 16479ft 279kts
29-Oct-23 17:50 35.631144 -107.250920 154 16128ft 278kts
29-Oct-23 17:52 35.553667 -107.193167 154 15722ft 277kts
29-Oct-23 17:52 35.499354 -107.152757 154 15429ft 272kts
29-Oct-23 17:53 35.434879 -107.104873 155 15188ft 267kts
29-Oct-23 17:54 35.371997 -107.058325 154 15165ft 262kts
29-Oct-23 17:55 35.309870 -107.012297 154 15154ft 261kts
29-Oct-23 17:56 35.246983 -106.965834 155 15122ft 262kts
29-Oct-23 17:57 35.185860 -106.920757 154 15100ft 252kts
29-Oct-23 17:58 35.124919 -106.890834 212 15054ft 224kts
29-Oct-23 17:59 35.114414 -106.957448 268 14498ft 214kts
29-Oct-23 18:00 35.114864 -107.035777 268 12790ft 244kts
29-Oct-23 18:01 35.066310 -107.066129 139 11019ft 276kts
29-Oct-23 18:02 35.044406 -106.979269 89 9303ft 273kts
29-Oct-23 18:03 35.045725 -106.892728 87 8987ft 239kts
29-Oct-23 18:04 35.045465 -106.812261 86 8294ft 233kts
29-Oct-23 18:05 35.045002 -106.733796 85 7198ft 227kts
29-Oct-23 18:06 35.044745 -106.663841 88 6120ft 152kts
29-Oct-23 18:07 35.044394 -106.627365 85 5485ft 81kts
29-Oct-23 18:08 35.043697 -106.610598 179 5315ft 12kts
29-Oct-23 18:09 35.042998 -106.610610 185 5315ft 17kts
29-Oct-23 18:10 35.040542 -106.613826 181 5313ft 16kts
29-Oct-23 18:11 35.035748 -106.616425 228 5313ft 21kts
29-Oct-23 18:12 35.035993 -106.618596 163 5309ft 0kts

Navigation Log

Ident Type
Flight plan parsing failed, navigation log unavailable